Time;durP1;ratioP1;P1;durP2;ratioP2;P2;SDS_P1;SDS_P2;PMS_P1;PMS_P2;Temp;Humidity;BMP_temperature;BMP_pressure;BME280_temperature;BME280_humidity;BME280_pressure;Samples;Min_cycle;Max_cycle;Signal;HPM_P1;HPM_P2
2023/05/20 00:00:53;;;;;;;39.00;35.50;;;;;;;10.19;100.00;98748.09;106842;1275;24241;-80
2023/05/20 00:03:21;;;;;;;41.10;37.40;;;;;;;10.20;100.00;98746.25;106864;1275;23885;-80
2023/05/20 00:05:49;;;;;;;40.60;36.90;;;;;;;10.20;100.00;98743.19;107051;1275;25532;-81
2023/05/20 00:08:18;;;;;;;38.90;35.50;;;;;;;10.17;100.00;98737.60;106877;1275;23917;-81
2023/05/20 00:10:46;;;;;;;40.00;36.30;;;;;;;10.12;100.00;98739.34;106762;1275;22521;-80
2023/05/20 00:13:14;;;;;;;41.20;37.10;;;;;;;10.02;100.00;98738.34;106807;1275;22596;-80
2023/05/20 00:15:42;;;;;;;39.10;35.50;;;;;;;9.97;100.00;98740.62;106802;1275;25390;-80
2023/05/20 00:18:10;;;;;;;41.10;37.10;;;;;;;9.93;100.00;98738.90;106981;1275;22633;-80
2023/05/20 00:20:38;;;;;;;40.30;36.50;;;;;;;9.92;100.00;98737.09;106732;1275;22529;-79
2023/05/20 00:23:06;;;;;;;38.50;34.80;;;;;;;9.93;100.00;98743.38;106924;1275;22815;-80
2023/05/20 00:25:34;;;;;;;39.10;35.40;;;;;;;9.94;100.00;98740.36;106807;1275;22815;-80
2023/05/20 00:28:02;;;;;;;37.00;33.80;;;;;;;9.93;100.00;98744.19;107030;1266;24269;-81
2023/05/20 00:30:30;;;;;;;38.70;35.40;;;;;;;9.93;100.00;98743.98;106967;1275;23145;-82
2023/05/20 00:32:58;;;;;;;37.90;34.50;;;;;;;9.94;100.00;98741.82;107015;1275;25211;-86
2023/05/20 00:35:27;;;;;;;37.90;34.40;;;;;;;9.94;100.00;98739.94;106987;1275;23458;-85
2023/05/20 00:37:55;;;;;;;35.90;32.40;;;;;;;9.92;100.00;98738.11;107197;1275;25275;-82
2023/05/20 00:40:23;;;;;;;34.30;31.30;;;;;;;9.90;100.00;98734.83;107219;1275;25440;-81
2023/05/20 00:42:52;;;;;;;33.60;30.60;;;;;;;9.87;100.00;98732.80;107427;1275;23926;-80
2023/05/20 00:45:20;;;;;;;35.60;32.30;;;;;;;9.84;100.00;98734.36;106988;1275;22524;-82
2023/05/20 00:47:48;;;;;;;35.30;32.00;;;;;;;9.82;100.00;98732.69;106995;1275;22608;-86
2023/05/20 00:50:16;;;;;;;34.70;31.60;;;;;;;9.81;100.00;98729.73;106809;1275;26633;-84
2023/05/20 00:52:47;;;;;;;34.00;30.80;;;;;;;9.83;100.00;98719.89;106978;1275;22643;-84
2023/05/20 00:55:15;;;;;;;37.20;30.70;;;;;;;9.82;100.00;98722.68;106614;1275;22533;-81
2023/05/20 00:57:43;;;;;;;35.30;32.20;;;;;;;9.79;100.00;98713.59;106851;1275;22547;-81
2023/05/20 01:00:12;;;;;;;33.10;30.00;;;;;;;9.79;100.00;98713.11;106851;1275;25420;-81
2023/05/20 01:02:41;;;;;;;34.40;31.30;;;;;;;9.78;100.00;98710.52;106863;1275;22599;-81
2023/05/20 01:05:09;;;;;;;33.50;30.50;;;;;;;9.78;100.00;98710.90;106877;1275;23899;-81
2023/05/20 01:07:37;;;;;;;34.30;31.20;;;;;;;9.79;100.00;98705.84;106823;1275;24192;-81
2023/05/20 01:10:06;;;;;;;28.50;26.00;;;;;;;9.79;100.00;98702.34;106834;1265;25234;-81
2023/05/20 01:12:45;;;;;;;28.60;25.70;;;;;;;9.77;100.00;98702.08;106818;1275;24324;-81
2023/05/20 01:15:15;;;;;;;30.00;27.20;;;;;;;9.77;100.00;98703.11;106837;1275;23885;-81
2023/05/20 01:17:46;;;;;;;28.00;25.60;;;;;;;9.80;100.00;98703.68;106906;1275;22537;-81
2023/05/20 01:20:14;;;;;;;27.40;25.00;;;;;;;9.83;100.00;98701.84;106994;1275;22801;-81
2023/05/20 01:22:52;;;;;;;27.90;25.30;;;;;;;9.86;100.00;98701.89;106615;1275;22545;-81
2023/05/20 01:25:21;;;;;;;29.10;26.50;;;;;;;9.91;100.00;98698.59;106938;1275;24383;-81
2023/05/20 01:27:51;;;;;;;28.10;25.80;;;;;;;9.90;100.00;98692.67;107030;1275;22574;-80
2023/05/20 01:30:21;;;;;;;29.40;26.60;;;;;;;9.92;100.00;98691.06;106829;1275;24311;-81
2023/05/20 01:32:56;;;;;;;29.10;26.50;;;;;;;9.93;100.00;98691.47;106952;1275;22640;-80
2023/05/20 01:35:25;;;;;;;28.90;26.10;;;;;;;9.95;100.00;98692.17;106999;1275;22543;-81
2023/05/20 01:37:55;;;;;;;26.20;23.70;;;;;;;9.96;100.00;98688.55;106839;1275;25331;-81
2023/05/20 01:40:25;;;;;;;25.70;23.20;;;;;;;9.97;100.00;98689.48;107090;1275;22528;-80
2023/05/20 01:42:55;;;;;;;26.10;23.70;;;;;;;10.00;100.00;98684.45;106780;1275;24252;-80
2023/05/20 01:45:24;;;;;;;25.10;22.80;;;;;;;10.03;100.00;98684.81;106785;1275;25317;-80
2023/05/20 01:47:52;;;;;;;24.40;22.20;;;;;;;10.03;100.00;98681.70;106646;1275;23921;-80
2023/05/20 01:50:20;;;;;;;21.80;19.80;;;;;;;10.03;100.00;98684.06;106846;1275;24255;-79
2023/05/20 01:52:48;;;;;;;20.60;18.70;;;;;;;10.03;100.00;98682.67;106730;1275;22789;-81
2023/05/20 01:55:16;;;;;;;20.20;18.40;;;;;;;10.03;100.00;98689.28;106830;1275;24438;-81
2023/05/20 01:57:44;;;;;;;21.20;19.20;;;;;;;10.03;100.00;98697.36;107035;1275;22536;-80
2023/05/20 02:00:12;;;;;;;21.10;19.20;;;;;;;10.04;100.00;98697.15;106991;1275;22640;-80
2023/05/20 02:02:40;;;;;;;20.40;18.60;;;;;;;10.04;100.00;98695.20;107009;1275;22524;-81
2023/05/20 02:05:11;;;;;;;20.10;18.20;;;;;;;10.02;100.00;98694.24;106820;1275;22788;-81
2023/05/20 02:07:42;;;;;;;19.30;17.60;;;;;;;10.05;100.00;98697.99;106914;1275;22522;-82
2023/05/20 02:10:10;;;;;;;20.70;18.60;;;;;;;10.08;100.00;98699.71;106878;1275;22646;-81
2023/05/20 02:12:38;;;;;;;20.00;18.20;;;;;;;10.10;100.00;98704.23;106857;1274;23370;-81
2023/05/20 02:15:06;;;;;;;19.50;17.60;;;;;;;10.12;100.00;98702.18;106839;1275;22526;-80
2023/05/20 02:17:36;;;;;;;20.20;18.20;;;;;;;10.10;100.00;98703.15;106885;1275;22933;-81
2023/05/20 02:20:06;;;;;;;19.70;17.60;;;;;;;10.11;100.00;98703.52;107043;1275;24395;-81
2023/05/20 02:22:35;;;;;;;18.10;16.50;;;;;;;10.11;100.00;98703.96;106991;1272;22532;-81
2023/05/20 02:25:03;;;;;;;18.60;16.70;;;;;;;10.10;100.00;98706.11;106910;1275;22599;-81
2023/05/20 02:27:31;;;;;;;18.70;16.80;;;;;;;10.09;100.00;98706.27;106807;1275;25632;-81
2023/05/20 02:30:00;;;;;;;18.30;16.50;;;;;;;10.08;100.00;98709.99;107070;1275;22577;-81
2023/05/20 02:32:28;;;;;;;18.00;16.20;;;;;;;10.07;100.00;98712.11;106946;1275;23152;-81
2023/05/20 02:34:56;;;;;;;19.40;17.50;;;;;;;10.07;100.00;98709.47;106620;1275;24052;-81
2023/05/20 02:37:24;;;;;;;19.80;18.00;;;;;;;10.08;100.00;98710.90;106990;1275;22566;-80
2023/05/20 02:39:55;;;;;;;19.20;17.30;;;;;;;10.09;100.00;98711.66;107004;1275;22631;-84
2023/05/20 02:42:23;;;;;;;19.50;17.70;;;;;;;10.11;100.00;98709.19;106892;1275;25504;-81
2023/05/20 02:44:55;;;;;;;18.00;16.30;;;;;;;10.10;100.00;98705.73;107004;1275;22524;-81
2023/05/20 02:47:24;;;;;;;18.90;17.00;;;;;;;10.12;100.00;98704.81;107146;1275;24193;-80
2023/05/20 02:49:52;;;;;;;17.40;15.70;;;;;;;10.14;100.00;98707.98;107508;1275;24180;-81
2023/05/20 02:52:21;;;;;;;19.30;17.40;;;;;;;10.15;100.00;98705.57;107001;1275;24241;-82
2023/05/20 02:54:51;;;;;;;18.80;17.20;;;;;;;10.17;100.00;98707.21;107065;1275;22633;-82
2023/05/20 02:57:19;;;;;;;20.60;18.70;;;;;;;10.17;100.00;98713.02;107057;1275;22619;-82
2023/05/20 02:59:47;;;;;;;21.90;19.90;;;;;;;10.18;100.00;98707.65;107032;1275;22552;-82
2023/05/20 03:02:16;;;;;;;20.20;18.30;;;;;;;10.19;100.00;98706.89;106835;1275;22528;-80
2023/05/20 03:04:46;;;;;;;19.90;18.00;;;;;;;10.20;100.00;98712.15;106878;1275;22518;-80
2023/05/20 03:07:18;;;;;;;20.90;18.80;;;;;;;10.21;100.00;98709.48;107018;1275;23393;-79
2023/05/20 03:09:46;;;;;;;18.80;17.00;;;;;;;10.23;100.00;98709.94;106878;1275;22553;-80
2023/05/20 03:12:14;;;;;;;20.00;18.00;;;;;;;10.26;100.00;98712.18;106586;1275;25503;-80
2023/05/20 03:14:42;;;;;;;19.40;17.60;;;;;;;10.29;100.00;98710.15;106593;1275;22599;-81
2023/05/20 03:17:11;;;;;;;19.40;17.70;;;;;;;10.31;100.00;98710.79;106598;1275;24371;-81
2023/05/20 03:19:40;;;;;;;20.60;18.70;;;;;;;10.34;100.00;98711.53;106833;1275;24376;-81
2023/05/20 03:22:08;;;;;;;21.80;19.90;;;;;;;10.34;100.00;98709.70;106611;1275;22776;-81
2023/05/20 03:24:36;;;;;;;22.30;20.20;;;;;;;10.35;100.00;98710.56;106824;1275;25390;-81
2023/05/20 03:27:05;;;;;;;20.90;19.00;;;;;;;10.35;100.00;98706.52;106846;1275;24345;-80
2023/05/20 03:29:34;;;;;;;22.10;19.90;;;;;;;10.34;100.00;98705.71;106948;1275;22657;-81
2023/05/20 03:32:02;;;;;;;21.30;19.30;;;;;;;10.35;100.00;98709.71;106877;1275;22593;-81
2023/05/20 03:34:30;;;;;;;22.50;20.40;;;;;;;10.36;100.00;98713.41;106760;1275;25390;-80
2023/05/20 03:36:59;;;;;;;23.30;21.20;;;;;;;10.38;100.00;98710.86;106799;1275;25339;-81
2023/05/20 03:39:27;;;;;;;21.00;19.10;;;;;;;10.42;100.00;98707.98;106645;1275;22522;-81
2023/05/20 03:41:55;;;;;;;20.10;18.20;;;;;;;10.45;100.00;98706.31;106866;1275;25322;-82
2023/05/20 03:44:23;;;;;;;18.60;16.80;;;;;;;10.46;100.00;98706.08;106806;1275;24199;-82
2023/05/20 03:46:51;;;;;;;19.70;17.90;;;;;;;10.49;100.00;98706.94;107124;1274;22528;-81
2023/05/20 03:49:19;;;;;;;19.60;17.70;;;;;;;10.51;100.00;98706.11;106904;1275;22615;-81
2023/05/20 03:51:47;;;;;;;19.50;17.80;;;;;;;10.52;100.00;98700.94;106746;1275;22741;-80
2023/05/20 03:54:16;;;;;;;19.40;17.50;;;;;;;10.56;100.00;98707.05;106886;1275;22521;-80
2023/05/20 03:56:48;;;;;;;18.80;17.10;;;;;;;10.57;100.00;98706.50;106820;1275;24428;-80
2023/05/20 03:59:17;;;;;;;18.50;16.70;;;;;;;10.59;100.00;98709.02;106860;1274;25319;-81
2023/05/20 04:01:45;;;;;;;20.50;18.40;;;;;;;10.63;100.00;98710.20;106912;1251;24348;-81
2023/05/20 04:04:14;;;;;;;19.50;17.60;;;;;;;10.67;100.00;98710.91;107026;1275;25474;-81
2023/05/20 04:06:42;;;;;;;20.40;18.60;;;;;;;10.69;100.00;98712.85;107034;1275;22525;-80
2023/05/20 04:09:11;;;;;;;20.40;18.50;;;;;;;10.72;100.00;98709.00;106648;1275;24257;-80
2023/05/20 04:11:39;;;;;;;21.50;19.40;;;;;;;10.74;100.00;98708.77;107024;1275;22544;-80
2023/05/20 04:14:09;;;;;;;21.10;19.10;;;;;;;10.77;100.00;98711.93;106984;1275;22578;-80
2023/05/20 04:16:38;;;;;;;20.20;18.40;;;;;;;10.80;100.00;98716.55;106810;1275;22618;-78
2023/05/20 04:19:06;;;;;;;21.00;18.90;;;;;;;10.83;100.00;98718.91;106981;1275;22514;-78
2023/05/20 04:21:35;;;;;;;20.20;18.10;;;;;;;10.85;100.00;98713.83;106859;1275;22646;-79
2023/05/20 04:24:03;;;;;;;18.60;16.90;;;;;;;10.88;100.00;98714.66;106843;1275;22534;-82
2023/05/20 04:26:32;;;;;;;19.90;17.90;;;;;;;10.89;100.00;98715.85;107010;1275;22627;-78
2023/05/20 04:29:02;;;;;;;19.20;17.50;;;;;;;10.95;100.00;98717.16;106819;1275;22520;-81
2023/05/20 04:31:32;;;;;;;20.30;18.40;;;;;;;10.98;100.00;98720.27;107029;1275;25373;-81
2023/05/20 04:34:01;;;;;;;19.70;17.70;;;;;;;10.99;100.00;98724.08;106860;1275;22528;-78
2023/05/20 04:36:29;;;;;;;21.70;19.40;;;;;;;11.02;100.00;98724.70;107014;1275;24186;-78
2023/05/20 04:39:00;;;;;;;20.40;18.50;;;;;;;11.00;100.00;98724.13;107115;1275;25249;-78
2023/05/20 04:41:30;;;;;;;20.90;18.90;;;;;;;11.03;100.00;98723.13;107300;1275;23843;-78
2023/05/20 04:43:59;;;;;;;21.20;19.20;;;;;;;11.06;100.00;98720.58;106907;1275;22626;-78
2023/05/20 04:46:27;;;;;;;21.00;19.00;;;;;;;11.09;100.00;98725.25;106832;1275;22528;-78
2023/05/20 04:48:55;;;;;;;21.60;19.50;;;;;;;11.08;100.00;98728.34;106804;1275;25319;-78
2023/05/20 04:51:23;;;;;;;21.70;19.80;;;;;;;11.08;100.00;98729.55;107006;1275;22626;-78
2023/05/20 04:53:51;;;;;;;19.00;17.30;;;;;;;11.12;100.00;98721.77;106716;1275;25312;-78
2023/05/20 04:56:19;;;;;;;19.30;17.50;;;;;;;11.16;100.00;98724.05;107028;1275;24247;-80
2023/05/20 04:58:47;;;;;;;18.80;17.10;;;;;;;11.20;100.00;98724.02;107164;1275;25348;-80
2023/05/20 05:01:15;;;;;;;18.50;16.90;;;;;;;11.23;100.00;98724.05;106991;1275;24206;-79
2023/05/20 05:03:44;;;;;;;17.60;15.90;;;;;;;11.29;100.00;98718.29;106941;1275;22544;-80
2023/05/20 05:06:13;;;;;;;17.10;15.60;;;;;;;11.36;100.00;98719.13;106996;1275;22640;-80
2023/05/20 05:08:41;;;;;;;16.70;15.00;;;;;;;11.42;100.00;98723.73;107045;1275;22521;-80
2023/05/20 05:11:09;;;;;;;18.30;16.50;;;;;;;11.49;100.00;98724.73;106985;1275;24467;-79
2023/05/20 05:13:37;;;;;;;18.70;17.00;;;;;;;11.55;100.00;98727.51;106959;1275;24205;-80
2023/05/20 05:16:06;;;;;;;16.70;15.00;;;;;;;11.60;100.00;98727.61;106822;1275;25329;-79
2023/05/20 05:18:34;;;;;;;18.40;16.50;;;;;;;11.67;100.00;98727.11;107002;1252;25322;-79
2023/05/20 05:21:05;;;;;;;15.60;14.10;;;;;;;11.70;100.00;98731.95;106904;1275;25331;-79
2023/05/20 05:23:34;;;;;;;16.90;15.30;;;;;;;11.73;100.00;98729.64;106868;1275;25458;-77
2023/05/20 05:26:02;;;;;;;17.30;15.70;;;;;;;11.78;100.00;98729.59;106562;1275;25364;-82
2023/05/20 05:28:30;;;;;;;18.00;16.30;;;;;;;11.84;100.00;98730.67;106954;1275;25465;-79
2023/05/20 05:31:00;;;;;;;15.60;13.10;;;;;;;11.90;100.00;98732.19;106992;1275;22703;-79
2023/05/20 05:33:29;;;;;;;15.90;14.40;;;;;;;11.95;100.00;98726.04;106884;1275;22510;-79
2023/05/20 05:35:57;;;;;;;14.70;13.30;;;;;;;12.09;100.00;98727.05;106895;1269;22528;-76
2023/05/20 05:38:27;;;;;;;13.40;12.20;;;;;;;12.31;100.00;98726.48;106765;1275;24348;-76
2023/05/20 05:40:55;;;;;;;14.40;12.90;;;;;;;12.49;100.00;98728.88;106725;1275;22595;-77
2023/05/20 05:43:23;;;;;;;13.00;11.70;;;;;;;12.65;100.00;98727.01;106664;1275;25329;-77
2023/05/20 05:45:51;;;;;;;15.80;14.30;;;;;;;12.82;100.00;98725.18;106811;1266;22532;-77
2023/05/20 05:48:21;;;;;;;15.90;14.20;;;;;;;13.03;100.00;98719.89;106942;1275;22636;-76
2023/05/20 05:50:50;;;;;;;15.40;13.80;;;;;;;13.13;100.00;98723.33;106635;1275;180454;-77
2023/05/20 05:53:19;;;;;;;15.70;14.10;;;;;;;13.21;100.00;98721.66;106911;1275;25948;-78
2023/05/20 05:55:48;;;;;;;15.80;14.30;;;;;;;13.32;100.00;98718.98;107460;1275;25321;-79
2023/05/20 05:58:16;;;;;;;17.00;15.40;;;;;;;13.40;100.00;98713.91;107133;1275;22784;-80
2023/05/20 06:00:45;;;;;;;17.90;16.00;;;;;;;13.41;100.00;98714.75;107061;1275;22508;-78
2023/05/20 06:03:14;;;;;;;18.40;16.60;;;;;;;13.44;100.00;98714.34;106883;1275;22528;-79
2023/05/20 06:05:46;;;;;;;16.70;15.10;;;;;;;13.43;100.00;98709.42;107033;1275;22727;-78
2023/05/20 06:08:14;;;;;;;16.80;15.20;;;;;;;13.44;100.00;98709.63;106866;1272;22608;-79
2023/05/20 06:10:48;;;;;;;16.60;15.10;;;;;;;13.42;100.00;98710.91;107159;1275;24340;-78
2023/05/20 06:13:17;;;;;;;16.20;14.60;;;;;;;13.44;100.00;98710.02;107045;1275;25648;-79
2023/05/20 06:15:45;;;;;;;17.80;16.20;;;;;;;13.48;100.00;98708.64;107053;1275;22527;-79
2023/05/20 06:18:13;;;;;;;18.20;16.50;;;;;;;13.50;100.00;98707.45;106897;1275;22521;-79
2023/05/20 06:20:41;;;;;;;18.80;16.90;;;;;;;13.47;100.00;98712.71;107005;1275;22640;-80
2023/05/20 06:23:10;;;;;;;19.30;17.30;;;;;;;13.47;100.00;98705.50;106920;1275;22504;-79
2023/05/20 06:26:10;;;;;;;17.70;16.00;;;;;;;13.48;100.00;98705.61;106852;1275;25412;-82
2023/05/20 06:28:38;;;;;;;18.20;16.40;;;;;;;13.48;100.00;98703.77;107021;1252;22635;-81
2023/05/20 06:31:07;;;;;;;18.00;16.30;;;;;;;13.46;100.00;98703.69;107016;1275;23293;-79
2023/05/20 06:33:36;;;;;;;17.90;15.90;;;;;;;13.50;100.00;98704.97;106879;1275;25610;-78
2023/05/20 06:36:10;;;;;;;;;;;;;;;13.63;100.00;98702.85;106914;1275;22491;-81
2023/05/20 06:38:38;;;;;;;17.30;15.60;;;;;;;13.78;100.00;98701.27;106915;1275;25255;-83
2023/05/20 06:41:07;;;;;;;20.30;18.50;;;;;;;13.91;100.00;98699.77;106883;1275;24249;-83
2023/05/20 06:43:35;;;;;;;19.40;17.60;;;;;;;14.00;100.00;98697.86;107020;1275;24592;-80
2023/05/20 06:46:05;;;;;;;19.80;17.00;;;;;;;14.11;100.00;98692.70;106972;1275;22786;-82
2023/05/20 06:48:39;;;;;;;17.50;15.80;;;;;;;14.21;100.00;98693.52;107047;1275;24354;-80
2023/05/20 06:51:08;;;;;;;27.20;16.90;;;;;;;14.30;100.00;98687.87;106958;1275;22540;-81
2023/05/20 06:53:36;;;;;;;17.80;16.10;;;;;;;14.34;100.00;98689.02;106920;1262;22655;-79
2023/05/20 06:56:05;;;;;;;20.30;18.40;;;;;;;14.37;100.00;98684.47;106992;1275;23888;-79
2023/05/20 06:58:33;;;;;;;18.00;16.20;;;;;;;14.34;100.00;98686.42;106918;1275;24229;-79
2023/05/20 07:01:01;;;;;;;19.30;17.20;;;;;;;14.29;100.00;98688.15;106987;1275;22643;-80
2023/05/20 07:03:30;;;;;;;19.10;17.10;;;;;;;14.27;100.00;98691.89;106990;1275;22602;-79
2023/05/20 07:05:58;;;;;;;18.50;16.50;;;;;;;14.27;100.00;98688.20;107079;1275;22517;-79
2023/05/20 07:08:27;;;;;;;19.60;16.40;;;;;;;14.28;100.00;98692.40;106926;1275;22755;-77
2023/05/20 07:10:56;;;;;;;19.70;16.40;;;;;;;14.22;100.00;98692.41;106873;1275;22647;-79
2023/05/20 07:13:26;;;;;;;19.20;17.30;;;;;;;14.20;100.00;98688.95;106916;1275;22539;-79
2023/05/20 07:15:55;;;;;;;18.70;17.00;;;;;;;14.13;100.00;98689.41;107046;1275;26505;-79
2023/05/20 07:18:24;;;;;;;21.60;19.30;;;;;;;14.12;100.00;98684.11;107045;1274;22771;-78
2023/05/20 07:20:55;;;;;;;19.10;17.20;;;;;;;14.19;100.00;98679.22;107172;1275;22530;-79
2023/05/20 07:23:45;;;;;;;19.10;17.30;;;;;;;14.27;100.00;98679.36;107102;1275;22522;-79
2023/05/20 07:26:13;;;;;;;19.10;17.30;;;;;;;14.36;100.00;98677.60;106872;1275;22514;-82
2023/05/20 07:28:41;;;;;;;20.10;18.00;;;;;;;14.38;100.00;98675.86;106860;1275;22515;-79
2023/05/20 07:31:09;;;;;;;20.20;18.40;;;;;;;14.34;100.00;98678.19;107020;1275;24055;-79
2023/05/20 07:33:42;;;;;;;20.30;18.10;;;;;;;14.31;100.00;98672.38;107032;1275;22476;-79
2023/05/20 07:36:11;;;;;;;19.90;18.00;;;;;;;14.30;100.00;98672.34;106870;1275;22751;-79
2023/05/20 07:38:41;;;;;;;19.50;17.50;;;;;;;14.30;100.00;98673.34;106983;1275;25475;-79
2023/05/20 07:41:30;;;;;;;17.90;16.20;;;;;;;14.41;100.00;98674.17;106940;1275;24173;-78
2023/05/20 07:43:58;;;;;;;17.30;15.60;;;;;;;14.53;100.00;98674.27;106874;1275;24340;-77
2023/05/20 07:46:26;;;;;;;19.90;18.00;;;;;;;14.63;100.00;98675.96;106928;1275;24293;-78
2023/05/20 07:48:54;;;;;;;21.50;19.50;;;;;;;14.69;100.00;98672.98;106768;1275;23069;-77
2023/05/20 07:51:22;;;;;;;20.00;18.10;;;;;;;14.70;99.94;98677.73;106963;1274;24366;-78
2023/05/20 07:53:50;;;;;;;19.80;17.80;;;;;;;14.69;99.98;98679.48;106833;1275;25351;-78
2023/05/20 07:56:20;;;;;;;22.50;19.40;;;;;;;14.67;99.54;98680.57;107014;1275;22562;-77
2023/05/20 07:58:55;;;;;;;22.80;19.80;;;;;;;14.65;99.87;98683.23;106857;1275;23005;-81
2023/05/20 08:01:26;;;;;;;22.70;20.40;;;;;;;14.60;99.41;98689.46;106993;1275;22644;-77
2023/05/20 08:03:54;;;;;;;23.30;21.00;;;;;;;14.51;99.30;98691.77;107105;1275;25485;-80
2023/05/20 08:06:25;;;;;;;22.00;19.30;;;;;;;14.42;99.62;98692.75;107293;1275;22565;-80
2023/05/20 08:08:57;;;;;;;22.10;20.20;;;;;;;14.40;99.57;98693.61;107256;1275;22521;-78
2023/05/20 08:11:29;;;;;;;21.70;19.50;;;;;;;14.36;99.46;98692.68;106950;1275;22627;-80
2023/05/20 08:13:58;;;;;;;20.90;19.00;;;;;;;14.32;99.73;98687.45;107015;1274;26727;-80
2023/05/20 08:16:28;;;;;;;22.20;20.10;;;;;;;14.31;99.79;98682.91;107052;1274;22536;-80
2023/05/20 08:18:56;;;;;;;21.30;19.20;;;;;;;14.31;99.82;98676.08;106933;1275;22755;-80
2023/05/20 08:21:25;;;;;;;20.70;18.80;;;;;;;14.29;99.67;98674.05;106905;1275;24323;-79
2023/05/20 08:23:54;;;;;;;21.20;19.20;;;;;;;14.27;99.89;98674.97;106558;1275;22513;-78
2023/05/20 08:26:22;;;;;;;19.50;17.70;;;;;;;14.28;99.75;98672.35;107043;1275;22606;-80
2023/05/20 08:28:50;;;;;;;19.10;17.30;;;;;;;14.27;99.85;98668.08;106870;1275;25376;-80
2023/05/20 08:31:19;;;;;;;19.00;17.30;;;;;;;14.34;99.99;98662.36;106672;1275;22728;-81
2023/05/20 08:33:47;;;;;;;20.80;18.80;;;;;;;14.40;99.97;98662.45;106954;1275;24457;-80
2023/05/20 08:36:15;;;;;;;20.00;18.00;;;;;;;14.45;99.61;98655.07;107127;1275;23177;-80
2023/05/20 08:38:44;;;;;;;20.60;18.40;;;;;;;14.48;99.72;98655.58;107164;1275;24065;-81
2023/05/20 08:41:12;;;;;;;20.10;18.10;;;;;;;14.56;99.73;98658.00;107143;1274;22546;-82
2023/05/20 08:43:43;;;;;;;18.90;17.10;;;;;;;14.67;99.80;98654.17;107222;1275;25252;-81
2023/05/20 08:46:11;;;;;;;20.60;17.40;;;;;;;14.80;99.42;98655.48;107085;1275;24215;-82
2023/05/20 08:48:40;;;;;;;18.80;16.70;;;;;;;14.90;99.60;98656.07;107059;1275;24375;-85
2023/05/20 08:51:11;;;;;;;18.30;16.50;;;;;;;15.04;99.49;98654.95;107095;1275;24231;-83
2023/05/20 08:53:40;;;;;;;20.10;18.30;;;;;;;15.18;99.06;98657.59;106924;1275;22800;-83
2023/05/20 08:56:10;;;;;;;18.80;17.10;;;;;;;15.26;98.93;98654.58;107196;1275;24199;-83
2023/05/20 08:58:38;;;;;;;19.30;17.40;;;;;;;15.36;99.35;98656.89;107148;1275;25482;-82
2023/05/20 09:01:07;;;;;;;19.00;17.20;;;;;;;15.51;99.46;98657.14;106959;1275;22723;-84
2023/05/20 09:03:35;;;;;;;18.10;16.40;;;;;;;15.67;99.01;98655.52;107190;1275;23952;-84
2023/05/20 09:06:08;;;;;;;18.10;16.40;;;;;;;15.76;97.71;98656.42;107056;1275;24253;-84
2023/05/20 09:08:36;;;;;;;18.80;16.90;;;;;;;15.76;97.65;98658.48;107201;1269;22533;-84
2023/05/20 09:11:11;;;;;;;19.60;17.80;;;;;;;15.84;97.52;98655.00;107229;1275;24231;-82
2023/05/20 09:13:49;;;;;;;19.50;17.50;;;;;;;15.94;97.64;98655.69;107051;1275;25473;-83
2023/05/20 09:16:17;;;;;;;20.20;18.20;;;;;;;16.02;96.89;98658.69;107151;1275;24199;-82
2023/05/20 09:18:45;;;;;;;20.00;17.90;;;;;;;16.07;96.89;98658.64;107245;1275;25321;-82
2023/05/20 09:21:13;;;;;;;19.20;17.30;;;;;;;16.17;97.50;98659.34;107234;1275;24228;-82
2023/05/20 09:23:46;;;;;;;19.00;17.20;;;;;;;16.27;96.63;98656.48;107179;1275;22606;-82
2023/05/20 09:26:17;;;;;;;20.80;18.80;;;;;;;16.30;95.95;98655.30;107215;1275;25244;-83
2023/05/20 09:28:45;;;;;;;20.00;18.20;;;;;;;16.32;95.42;98654.82;107218;1275;24272;-82
2023/05/20 09:31:13;;;;;;;20.00;18.00;;;;;;;16.33;95.09;98657.84;107063;1275;24235;-83
2023/05/20 09:33:43;;;;;;;20.70;18.70;;;;;;;16.38;95.14;98657.84;107245;1275;22600;-83
2023/05/20 09:36:12;;;;;;;20.60;18.60;;;;;;;16.42;94.60;98661.67;107158;1275;23716;-83
2023/05/20 09:38:44;;;;;;;21.80;19.60;;;;;;;16.42;94.58;98658.48;107095;1275;22777;-83
2023/05/20 09:41:14;;;;;;;22.40;20.20;;;;;;;16.44;94.11;98663.65;107198;1275;22511;-83
2023/05/20 09:43:44;;;;;;;23.80;20.10;;;;;;;16.42;93.70;98665.55;107090;1275;22942;-83
2023/05/20 09:46:12;;;;;;;21.70;19.60;;;;;;;16.46;94.47;98663.61;107297;1269;23322;-83
2023/05/20 09:48:42;;;;;;;22.20;19.80;;;;;;;16.51;94.81;98657.59;107270;1275;22689;-83
2023/05/20 09:51:12;;;;;;;22.20;20.00;;;;;;;16.57;94.88;98660.90;107182;1275;25319;-83
2023/05/20 09:53:41;;;;;;;23.10;20.90;;;;;;;16.62;94.64;98662.50;107480;1275;23895;-83
2023/05/20 09:56:10;;;;;;;24.90;21.20;;;;;;;16.63;94.52;98659.34;107329;1275;23065;-82
2023/05/20 09:58:41;;;;;;;26.60;24.10;;;;;;;16.64;93.89;98657.44;107432;1275;25556;-82
2023/05/20 10:01:09;;;;;;;25.20;22.90;;;;;;;16.60;93.34;98655.94;107174;1275;24193;-82
2023/05/20 10:03:37;;;;;;;25.00;22.60;;;;;;;16.55;92.78;98658.94;107186;1275;24177;-82
2023/05/20 10:06:08;;;;;;;25.90;23.30;;;;;;;16.57;93.13;98660.27;107416;1275;22531;-82
2023/05/20 10:09:01;;;;;;;27.30;24.70;;;;;;;16.60;92.56;98659.69;107216;1275;23581;-82
2023/05/20 10:11:32;;;;;;;27.00;24.40;;;;;;;16.62;92.98;98660.55;106986;1275;22979;-82
2023/05/20 10:14:06;;;;;;;28.00;25.30;;;;;;;16.66;93.14;98661.27;107042;1275;22528;-82
2023/05/20 10:16:49;;;;;;;27.40;24.80;;;;;;;16.70;92.56;98658.75;107022;1272;27687;-81
2023/05/20 10:19:25;;;;;;;27.60;24.80;;;;;;;16.74;92.65;98658.80;107018;1275;25382;-81
2023/05/20 10:21:59;;;;;;;25.60;22.90;;;;;;;16.86;93.45;98653.79;107152;1275;24261;-82
2023/05/20 10:24:34;;;;;;;27.20;24.20;;;;;;;17.01;92.78;98651.49;107085;1275;24186;-82
2023/05/20 10:27:04;;;;;;;26.80;24.20;;;;;;;17.04;91.20;98648.99;107184;1275;25238;-82
2023/05/20 10:29:50;;;;;;;26.90;24.40;;;;;;;17.06;90.92;98644.73;107236;1275;22654;-81
2023/05/20 10:32:24;;;;;;;26.50;22.90;;;;;;;17.14;91.61;98642.64;107180;1275;25213;-82
2023/05/20 10:34:52;;;;;;;27.80;24.40;;;;;;;17.27;91.16;98639.46;107181;1262;24298;-82
2023/05/20 10:37:29;;;;;;;30.70;23.30;;;;;;;17.41;91.14;98641.15;107071;1275;24240;-82
2023/05/20 10:40:10;;;;;;;25.60;23.00;;;;;;;17.58;89.45;98638.73;107084;1276;24318;-81
2023/05/20 10:42:39;;;;;;;26.40;23.70;;;;;;;17.61;89.16;98640.41;107057;1276;22524;-81
2023/05/20 10:45:08;;;;;;;26.70;24.00;;;;;;;17.68;88.74;98640.92;107037;1276;22528;-82
2023/05/20 10:47:41;;;;;;;26.20;23.10;;;;;;;17.76;89.16;98642.79;107025;1276;22636;-81
2023/05/20 10:50:26;;;;;;;26.00;23.60;;;;;;;17.83;88.15;98637.35;107128;1263;22608;-81
2023/05/20 10:53:04;;;;;;;26.70;22.70;;;;;;;17.91;87.93;98637.54;106780;1276;22524;-81
2023/05/20 10:55:37;;;;;;;26.20;23.50;;;;;;;18.19;88.67;98635.64;107029;1276;25316;-83
2023/05/20 10:58:06;;;;;;;24.00;21.70;;;;;;;18.39;87.14;98635.09;107261;1276;24816;-83
2023/05/20 11:00:36;;;;;;;24.20;21.90;;;;;;;18.45;87.14;98629.77;106985;1276;22540;-83
2023/05/20 11:03:06;;;;;;;26.10;22.90;;;;;;;18.50;87.72;98630.27;107092;1276;22537;-82
2023/05/20 11:05:35;;;;;;;26.40;22.90;;;;;;;18.60;87.78;98629.86;107584;1276;22537;-82
2023/05/20 11:08:05;;;;;;;26.60;22.50;;;;;;;18.70;87.45;98629.44;107231;1276;24266;-83
2023/05/20 11:10:51;;;;;;;25.50;22.70;;;;;;;18.73;85.15;98624.23;107241;1276;22623;-82
2023/05/20 11:13:19;;;;;;;25.60;22.10;;;;;;;18.75;84.99;98620.38;107084;1276;22520;-79
2023/05/20 11:15:48;;;;;;;26.20;21.80;;;;;;;18.80;85.81;98618.28;106947;1276;23110;-80